createdAt,value
2018-07-16T00:00:31.913Z,82.96
2018-07-16T00:03:00.728Z,83.16
2018-07-16T00:05:29.412Z,82.56
2018-07-16T00:07:58.057Z,83.44
2018-07-16T00:10:26.704Z,83.46
2018-07-16T00:12:56.198Z,84.11
2018-07-16T00:15:25.149Z,84.34
2018-07-16T00:17:53.869Z,84.49
2018-07-16T00:20:22.569Z,84.51
2018-07-16T00:22:51.680Z,84.89
2018-07-16T00:25:21.228Z,85.10
2018-07-16T00:27:50.411Z,84.85
2018-07-16T00:30:20.345Z,84.70
2018-07-16T00:32:49.155Z,85.18
2018-07-16T00:35:17.894Z,85.90
2018-07-16T00:37:46.709Z,85.84
2018-07-16T00:40:15.443Z,85.96
2018-07-16T00:42:44.723Z,86.92
2018-07-16T00:45:13.864Z,86.46
2018-07-16T00:47:42.415Z,86.65
2018-07-16T00:50:11.300Z,86.91
2018-07-16T00:52:39.843Z,86.50
2018-07-16T00:55:08.469Z,86.83
2018-07-16T00:57:37.209Z,86.53
2018-07-16T01:00:06.173Z,86.07
2018-07-16T01:02:34.818Z,86.77
2018-07-16T01:05:03.620Z,86.69
2018-07-16T01:07:32.324Z,86.88
2018-07-16T01:10:01.224Z,87.20
2018-07-16T01:12:30.035Z,87.55
2018-07-16T01:14:59.559Z,87.51
2018-07-16T01:17:28.454Z,88.05
2018-07-16T01:19:57.134Z,87.91
2018-07-16T01:22:26.658Z,88.00
2018-07-16T01:24:55.543Z,87.42
2018-07-16T01:27:24.762Z,87.43
2018-07-16T01:29:53.629Z,88.35
2018-07-16T01:32:22.844Z,88.34
2018-07-16T01:34:52.103Z,88.45
2018-07-16T01:37:21.224Z,88.93
2018-07-16T01:39:49.943Z,88.71
2018-07-16T01:42:18.469Z,88.56
2018-07-16T01:44:47.375Z,88.08
2018-07-16T01:47:16.065Z,88.60
2018-07-16T01:49:44.745Z,88.51
2018-07-16T01:52:13.479Z,88.60
2018-07-16T01:54:42.240Z,88.83
2018-07-16T01:57:11.214Z,88.67
2018-07-16T01:59:39.849Z,88.32
2018-07-16T02:02:08.549Z,88.43
2018-07-16T02:04:37.367Z,88.09
2018-07-16T02:07:06.388Z,88.68
2018-07-16T02:09:35.308Z,88.73
2018-07-16T02:12:03.939Z,88.35
2018-07-16T02:14:33.243Z,88.40
2018-07-16T02:17:02.464Z,87.93
2018-07-16T02:19:31.397Z,88.64
2018-07-16T02:21:59.959Z,88.85
2018-07-16T02:24:29.644Z,89.04
2018-07-16T02:26:58.319Z,89.03
2018-07-16T02:29:27.753Z,89.47
2018-07-16T02:31:56.404Z,89.53
2018-07-16T02:34:24.990Z,89.01
2018-07-16T02:36:53.601Z,89.08
2018-07-16T02:39:22.389Z,89.03
2018-07-16T02:41:51.266Z,88.93
2018-07-16T02:44:21.248Z,88.95
2018-07-16T02:46:49.901Z,88.48
2018-07-16T02:49:18.495Z,88.09
2018-07-16T02:51:48.166Z,87.77
2018-07-16T02:54:17.363Z,88.01
2018-07-16T02:56:45.962Z,87.94
2018-07-16T02:59:14.793Z,87.46
2018-07-16T03:01:43.517Z,87.73
2018-07-16T03:04:12.667Z,88.27
2018-07-16T03:06:42.204Z,88.06
2018-07-16T03:09:11.114Z,88.51
2018-07-16T03:11:40.062Z,88.44
2018-07-16T03:14:08.791Z,89.18
2018-07-16T03:16:37.447Z,89.78
2018-07-16T03:19:07.281Z,89.42
2018-07-16T03:21:35.990Z,89.45
2018-07-16T03:24:04.644Z,89.45
2018-07-16T03:26:33.929Z,89.74
2018-07-16T03:29:02.970Z,90.19
2018-07-16T03:31:32.168Z,90.22
2018-07-16T03:34:01.085Z,90.56
2018-07-16T03:36:29.759Z,90.68
2018-07-16T03:38:58.299Z,90.31
2018-07-16T03:41:26.883Z,89.99
2018-07-16T03:43:55.559Z,90.32
2018-07-16T03:46:24.561Z,90.67
2018-07-16T03:48:53.320Z,91.04
2018-07-16T03:51:21.990Z,91.44
2018-07-16T03:53:50.554Z,91.22
2018-07-16T03:56:19.120Z,91.19
2018-07-16T03:58:47.821Z,91.29
2018-07-16T04:01:16.891Z,91.39
2018-07-16T04:03:45.592Z,91.63
2018-07-16T04:06:14.525Z,91.67
2018-07-16T04:08:43.279Z,91.68
2018-07-16T04:11:12.061Z,91.01
2018-07-16T04:13:41.273Z,91.34
2018-07-16T04:16:10.414Z,91.65
2018-07-16T04:18:39.211Z,91.37
2018-07-16T04:21:08.179Z,90.94
2018-07-16T04:23:36.761Z,90.80
2018-07-16T04:26:05.509Z,90.58
2018-07-16T04:28:34.407Z,90.41
2018-07-16T04:31:03.142Z,90.47
2018-07-16T04:33:31.966Z,90.10
2018-07-16T04:36:00.618Z,89.59
2018-07-16T04:38:29.571Z,89.53
2018-07-16T04:40:58.341Z,89.58
2018-07-16T04:43:26.987Z,89.66
2018-07-16T04:45:56.087Z,89.08
2018-07-16T04:48:24.820Z,88.34
2018-07-16T04:50:53.529Z,87.54
2018-07-16T04:53:23.051Z,87.24
2018-07-16T04:55:51.706Z,87.41
2018-07-16T04:58:21.264Z,87.16
2018-07-16T05:00:50.099Z,87.06
2018-07-16T05:03:18.880Z,86.87
2018-07-16T05:05:48.009Z,86.91
2018-07-16T05:08:16.975Z,86.12
2018-07-16T05:10:45.840Z,85.49
2018-07-16T05:13:14.733Z,84.47
2018-07-16T05:15:43.401Z,84.08
2018-07-16T05:18:12.190Z,83.21
2018-07-16T05:20:41.090Z,82.13
2018-07-16T05:23:09.870Z,80.41
2018-07-16T05:25:38.586Z,77.86
2018-07-16T05:28:07.188Z,76.95
2018-07-16T05:30:36.495Z,74.12
2018-07-16T05:33:05.144Z,70.08
2018-07-16T05:35:33.759Z,68.80
2018-07-16T05:38:02.509Z,67.82
2018-07-16T05:40:31.269Z,68.98
2018-07-16T05:43:00.506Z,69.84
2018-07-16T05:45:29.741Z,71.39
2018-07-16T05:47:58.835Z,74.10
2018-07-16T05:50:27.561Z,74.81
2018-07-16T05:52:56.382Z,74.74
2018-07-16T05:55:25.036Z,73.78
2018-07-16T05:57:53.860Z,72.79
2018-07-16T06:00:22.824Z,72.58
2018-07-16T06:02:52.305Z,71.90
2018-07-16T06:05:21.695Z,70.05
2018-07-16T06:07:50.879Z,67.44
2018-07-16T06:10:19.641Z,59.94
2018-07-16T06:12:48.961Z,56.71
2018-07-16T06:15:17.620Z,52.65
2018-07-16T06:17:46.807Z,51.72
2018-07-16T06:20:15.935Z,51.62
2018-07-16T06:22:45.140Z,53.17
2018-07-16T06:25:13.985Z,52.62
2018-07-16T06:27:43.435Z,51.04
2018-07-16T06:30:12.391Z,48.30
2018-07-16T06:32:41.212Z,46.57
2018-07-16T06:35:10.199Z,43.30
2018-07-16T06:37:39.517Z,42.33
2018-07-16T06:40:08.391Z,42.87
2018-07-16T06:42:37.115Z,44.11
2018-07-16T06:45:07.195Z,44.56
2018-07-16T06:47:36.296Z,45.58
2018-07-16T06:50:05.145Z,47.12
2018-07-16T06:52:33.866Z,48.93
2018-07-16T06:55:02.719Z,51.41
2018-07-16T06:57:31.490Z,52.79
2018-07-16T07:00:00.240Z,53.09
2018-07-16T07:02:28.917Z,54.75
2018-07-16T07:04:57.922Z,55.83
2018-07-16T07:07:26.804Z,55.52
2018-07-16T07:09:55.564Z,56.13
2018-07-16T07:12:24.671Z,55.31
2018-07-16T07:14:53.570Z,54.81
2018-07-16T07:17:22.885Z,53.96
2018-07-16T07:19:51.560Z,54.20
2018-07-16T07:22:20.282Z,53.34
2018-07-16T07:24:48.890Z,53.38
2018-07-16T07:27:18.197Z,52.44
2018-07-16T07:29:46.976Z,50.35
2018-07-16T07:32:15.656Z,46.28
2018-07-16T07:34:44.370Z,45.38
2018-07-16T07:37:13.911Z,46.91
2018-07-16T07:39:43.140Z,45.56
2018-07-16T07:42:12.317Z,45.97
2018-07-16T07:44:41.015Z,41.89
2018-07-16T07:47:09.891Z,37.38
2018-07-16T07:49:38.728Z,36.16
2018-07-16T07:52:07.505Z,36.06
2018-07-16T07:54:36.598Z,33.00
2018-07-16T07:57:06.796Z,29.94
2018-07-16T07:59:36.137Z,28.89
2018-07-16T08:02:05.919Z,30.10
2018-07-16T08:04:34.742Z,32.92
2018-07-16T08:07:08.857Z,32.71
2018-07-16T08:09:37.647Z,34.54
2018-07-16T08:12:07.247Z,36.45
2018-07-16T08:14:36.742Z,37.93
2018-07-16T08:17:05.938Z,39.28
2018-07-16T08:19:34.718Z,38.99
2018-07-16T08:22:03.847Z,39.03
2018-07-16T08:24:33.001Z,39.34
2018-07-16T08:27:01.858Z,40.63
2018-07-16T08:29:30.450Z,42.63
2018-07-16T08:31:59.931Z,40.86
2018-07-16T08:34:28.536Z,40.30
2018-07-16T08:36:57.231Z,40.33
2018-07-16T08:39:26.171Z,40.86
2018-07-16T08:41:54.766Z,40.97
2018-07-16T08:44:24.036Z,40.63
2018-07-16T08:46:52.872Z,39.65
2018-07-16T08:49:22.297Z,40.58
2018-07-16T08:51:50.953Z,40.28
2018-07-16T08:54:19.819Z,40.15
2018-07-16T08:56:49.227Z,34.67
2018-07-16T08:59:17.871Z,31.08
2018-07-16T09:01:46.577Z,28.69
2018-07-16T09:04:15.596Z,26.46
2018-07-16T09:06:45.172Z,25.82
2018-07-16T09:09:13.912Z,27.46
2018-07-16T09:11:42.678Z,25.59
2018-07-16T09:14:11.203Z,25.16
2018-07-16T09:16:39.950Z,24.32
2018-07-16T09:19:08.857Z,24.08
2018-07-16T09:21:37.742Z,24.01
2018-07-16T09:24:06.589Z,22.88
2018-07-16T09:26:35.926Z,22.38
2018-07-16T09:29:05.272Z,22.63
2018-07-16T09:31:33.987Z,22.83
2018-07-16T09:34:02.677Z,24.06
2018-07-16T09:36:31.753Z,23.80
2018-07-16T09:39:00.585Z,23.48
2018-07-16T09:41:30.150Z,21.34
2018-07-16T09:43:59.454Z,19.77
2018-07-16T09:46:28.310Z,21.32
2018-07-16T09:48:58.157Z,22.37
2018-07-16T09:51:27.017Z,25.74
2018-07-16T09:53:55.961Z,26.40
2018-07-16T09:56:24.894Z,23.60
2018-07-16T09:58:53.856Z,21.20
2018-07-16T10:01:27.976Z,19.86
2018-07-16T10:03:57.162Z,19.82
2018-07-16T10:06:26.063Z,19.78
2018-07-16T10:08:54.696Z,21.49
2018-07-16T10:11:23.382Z,24.67
2018-07-16T10:13:52.142Z,27.59
2018-07-16T10:16:20.845Z,27.49
2018-07-16T10:18:50.516Z,28.32
2018-07-16T10:21:19.300Z,26.29
2018-07-16T10:23:47.916Z,23.88
2018-07-16T10:26:16.749Z,24.76
2018-07-16T10:28:45.403Z,25.19
2018-07-16T10:31:14.827Z,24.78
2018-07-16T10:33:43.683Z,26.00
2018-07-16T10:36:13.248Z,28.74
2018-07-16T10:38:42.241Z,29.36
2018-07-16T10:41:11.706Z,28.80
2018-07-16T10:43:40.757Z,28.22
2018-07-16T10:46:09.663Z,25.97
2018-07-16T10:48:38.267Z,24.50
2018-07-16T10:51:07.523Z,24.47
2018-07-16T10:53:36.606Z,24.17
2018-07-16T10:56:05.523Z,25.89
2018-07-16T10:58:34.272Z,28.04
2018-07-16T11:01:03.241Z,30.56
2018-07-16T11:03:32.154Z,30.07
2018-07-16T11:06:06.759Z,31.46
2018-07-16T11:08:35.551Z,31.28
2018-07-16T11:11:04.601Z,29.55
2018-07-16T11:13:33.401Z,29.15
2018-07-16T11:16:02.137Z,29.30
2018-07-16T11:18:31.011Z,29.55
2018-07-16T11:21:00.062Z,30.35
2018-07-16T11:23:29.288Z,30.20
2018-07-16T11:25:58.772Z,30.53
2018-07-16T11:28:27.921Z,30.89
2018-07-16T11:30:56.948Z,31.29
2018-07-16T11:33:25.718Z,32.74
2018-07-16T11:35:54.555Z,33.45
2018-07-16T11:38:23.261Z,33.46
2018-07-16T11:40:52.071Z,33.93
2018-07-16T11:43:21.087Z,34.67
2018-07-16T11:45:50.114Z,35.25
2018-07-16T11:48:18.915Z,35.23
2018-07-16T11:50:47.724Z,34.47
2018-07-16T11:53:16.589Z,34.89
2018-07-16T11:55:45.243Z,35.72
2018-07-16T11:58:14.132Z,35.96
2018-07-16T12:00:42.954Z,35.54
2018-07-16T12:03:12.328Z,38.01
2018-07-16T12:05:41.275Z,36.45
2018-07-16T12:08:10.307Z,36.99
2018-07-16T12:10:39.302Z,35.92
2018-07-16T12:13:08.924Z,35.49
2018-07-16T12:15:38.101Z,35.47
2018-07-16T12:18:07.192Z,35.60
2018-07-16T12:20:36.108Z,36.26
2018-07-16T12:23:04.958Z,36.15
2018-07-16T12:25:34.064Z,36.24
2018-07-16T12:28:02.779Z,37.51
2018-07-16T12:30:31.452Z,38.38
2018-07-16T12:33:00.248Z,37.79
2018-07-16T12:35:29.068Z,37.81
2018-07-16T12:37:58.089Z,37.33
2018-07-16T12:40:27.040Z,36.04
2018-07-16T12:42:55.589Z,34.91
2018-07-16T12:45:24.672Z,34.25
2018-07-16T12:47:53.523Z,34.73
2018-07-16T12:50:22.282Z,35.67
2018-07-16T12:52:51.432Z,35.49
2018-07-16T12:55:20.546Z,35.96
2018-07-16T12:57:49.905Z,35.63
2018-07-16T13:00:19.124Z,35.36
2018-07-16T13:02:47.964Z,34.97
2018-07-16T13:05:16.626Z,34.91
2018-07-16T13:07:45.553Z,35.39
2018-07-16T13:10:14.257Z,35.42
2018-07-16T13:12:43.109Z,34.52
2018-07-16T13:15:11.944Z,33.95
2018-07-16T13:17:40.742Z,33.38
2018-07-16T13:20:10.102Z,33.24
2018-07-16T13:22:39.203Z,33.06
2018-07-16T13:25:07.801Z,32.80
2018-07-16T13:27:36.648Z,34.50
2018-07-16T13:30:06.095Z,35.49
2018-07-16T13:32:35.263Z,35.16
2018-07-16T13:35:05.261Z,35.58
2018-07-16T13:37:34.148Z,36.63
2018-07-16T13:40:02.753Z,35.92
2018-07-16T13:42:32.039Z,36.77
2018-07-16T13:45:01.298Z,36.58
2018-07-16T13:47:30.411Z,35.12
2018-07-16T13:49:59.325Z,34.78
2018-07-16T13:52:28.068Z,34.89
2018-07-16T13:54:57.102Z,35.06
2018-07-16T13:57:26.377Z,35.80
2018-07-16T13:59:54.989Z,36.73
2018-07-16T14:02:23.829Z,35.65
2018-07-16T14:04:53.347Z,35.18
2018-07-16T14:07:22.067Z,35.61
2018-07-16T14:09:50.788Z,35.02
2018-07-16T14:12:20.649Z,36.74
2018-07-16T14:14:49.717Z,35.94
2018-07-16T14:17:18.608Z,35.25
2018-07-16T14:19:47.374Z,34.86
2018-07-16T14:22:16.670Z,35.55
2018-07-16T14:24:45.919Z,35.21
2018-07-16T14:27:15.075Z,36.28
2018-07-16T14:29:43.725Z,35.69
2018-07-16T14:32:12.598Z,36.06
2018-07-16T14:34:41.453Z,35.68
2018-07-16T14:37:10.125Z,36.81
2018-07-16T14:39:38.828Z,37.41
2018-07-16T14:42:07.568Z,36.72
2018-07-16T14:44:36.651Z,38.78
2018-07-16T14:47:05.506Z,37.48
2018-07-16T14:49:35.040Z,37.42
2018-07-16T14:52:04.580Z,37.83
2018-07-16T14:54:33.550Z,37.84
2018-07-16T14:57:02.452Z,36.25
2018-07-16T14:59:31.153Z,36.58
2018-07-16T15:01:59.908Z,36.41
2018-07-16T15:04:28.533Z,35.12
2018-07-16T15:06:57.934Z,36.16
2018-07-16T15:09:26.844Z,36.44
2018-07-16T15:11:55.534Z,35.55
2018-07-16T15:14:24.324Z,36.00
2018-07-16T15:16:53.394Z,35.58
2018-07-16T15:19:23.032Z,36.35
2018-07-16T15:21:52.245Z,35.96
2018-07-16T15:24:20.931Z,35.72
2018-07-16T15:26:50.226Z,35.88
2018-07-16T15:29:18.809Z,35.56
2018-07-16T15:31:47.867Z,35.20
2018-07-16T15:34:16.931Z,35.29
2018-07-16T15:36:45.653Z,34.88
2018-07-16T15:39:14.604Z,35.30
2018-07-16T15:41:43.331Z,35.88
2018-07-16T15:44:12.029Z,36.19
2018-07-16T15:46:41.369Z,35.77
2018-07-16T15:49:10.218Z,35.05
2018-07-16T15:51:39.028Z,35.04
2018-07-16T15:54:08.306Z,35.85
2018-07-16T15:56:37.031Z,37.19
2018-07-16T15:59:05.758Z,35.32
2018-07-16T16:01:34.463Z,37.37
2018-07-16T16:04:03.338Z,37.23
2018-07-16T16:06:32.228Z,36.28
2018-07-16T16:09:00.889Z,36.56
2018-07-16T16:11:29.711Z,37.24
2018-07-16T16:13:58.498Z,37.01
2018-07-16T16:16:27.325Z,36.85
2018-07-16T16:18:56.003Z,36.57
2018-07-16T16:21:24.694Z,36.68
2018-07-16T16:23:53.548Z,36.22
2018-07-16T16:26:22.684Z,36.70
2018-07-16T16:28:51.563Z,36.12
2018-07-16T16:31:20.548Z,36.22
2018-07-16T16:33:49.208Z,35.66
2018-07-16T16:36:18.027Z,35.80
2018-07-16T16:38:47.392Z,36.42
2018-07-16T16:41:16.048Z,36.03
2018-07-16T16:43:45.678Z,36.66
2018-07-16T16:46:15.043Z,36.71
2018-07-16T16:48:43.957Z,37.74
2018-07-16T16:51:13.116Z,37.65
2018-07-16T16:53:41.789Z,37.75
2018-07-16T16:56:10.848Z,37.91
2018-07-16T16:58:40.067Z,39.28
2018-07-16T17:01:09.654Z,38.47
2018-07-16T17:03:38.568Z,38.63
2018-07-16T17:06:07.354Z,38.64
2018-07-16T17:08:36.220Z,39.14
2018-07-16T17:11:05.148Z,39.36
2018-07-16T17:13:34.105Z,40.46
2018-07-16T17:16:03.079Z,39.78
2018-07-16T17:18:32.094Z,39.16
2018-07-16T17:21:01.004Z,39.58
2018-07-16T17:23:33.410Z,40.05
2018-07-16T17:26:02.064Z,40.12
2018-07-16T17:28:32.013Z,39.44
2018-07-16T17:31:01.003Z,39.38
2018-07-16T17:33:29.773Z,39.72
2018-07-16T17:35:58.524Z,40.49
2018-07-16T17:38:27.438Z,40.40
2018-07-16T17:40:56.903Z,40.58
2018-07-16T17:43:26.098Z,39.80
2018-07-16T17:45:54.947Z,42.42
2018-07-16T17:48:24.735Z,43.55
2018-07-16T17:50:53.782Z,44.12
2018-07-16T17:53:23.038Z,44.80
2018-07-16T17:55:51.924Z,45.31
2018-07-16T17:58:20.754Z,46.32
2018-07-16T18:00:49.684Z,47.39
2018-07-16T18:03:20.009Z,47.81
2018-07-16T18:05:48.889Z,48.42
2018-07-16T18:08:17.871Z,48.66
2018-07-16T18:10:46.850Z,48.55
2018-07-16T18:13:15.936Z,48.87
2018-07-16T18:15:45.001Z,49.80
2018-07-16T18:18:14.134Z,50.06
2018-07-16T18:20:43.006Z,50.44
2018-07-16T18:23:11.795Z,50.92
2018-07-16T18:25:40.878Z,51.52
2018-07-16T18:28:10.283Z,51.55
2018-07-16T18:30:39.300Z,52.75
2018-07-16T18:33:08.280Z,53.36
2018-07-16T18:35:37.416Z,53.34
2018-07-16T18:38:06.071Z,53.52
2018-07-16T18:40:34.936Z,55.06
2018-07-16T18:43:03.841Z,56.83
2018-07-16T18:45:32.815Z,57.35
2018-07-16T18:48:01.876Z,58.04
2018-07-16T18:50:30.399Z,58.69
2018-07-16T18:52:59.020Z,59.12
2018-07-16T18:55:28.637Z,59.75
2018-07-16T18:57:57.804Z,60.41
2018-07-16T19:00:27.031Z,61.87
2018-07-16T19:02:55.908Z,61.35
2018-07-16T19:05:25.594Z,62.12
2018-07-16T19:07:54.496Z,62.05
2018-07-16T19:10:23.181Z,62.46
2018-07-16T19:12:52.759Z,63.09
2018-07-16T19:15:26.329Z,63.89
2018-07-16T19:17:56.255Z,64.89
2018-07-16T19:20:25.614Z,65.70
2018-07-16T19:22:54.350Z,65.70
2018-07-16T19:25:23.472Z,66.61
2018-07-16T19:27:52.513Z,66.25
2018-07-16T19:30:21.800Z,66.26
2018-07-16T19:32:50.837Z,66.43
2018-07-16T19:35:23.762Z,66.67
2018-07-16T19:37:53.573Z,67.18
2018-07-16T19:40:22.636Z,67.69
2018-07-16T19:42:51.847Z,68.02
2018-07-16T19:45:20.869Z,68.78
2018-07-16T19:47:50.127Z,69.20
2018-07-16T19:50:19.496Z,69.22
2018-07-16T19:52:48.566Z,69.86
2018-07-16T19:55:18.194Z,70.74
2018-07-16T19:57:47.027Z,70.55
2018-07-16T20:00:16.348Z,71.17
2018-07-16T20:02:45.475Z,71.15
2018-07-16T20:05:14.731Z,72.01
2018-07-16T20:07:43.452Z,72.34
2018-07-16T20:10:13.186Z,72.72
2018-07-16T20:12:42.335Z,72.91
2018-07-16T20:15:15.620Z,74.19
2018-07-16T20:17:44.787Z,74.13
2018-07-16T20:20:13.893Z,75.16
2018-07-16T20:22:43.170Z,75.31
2018-07-16T20:25:12.409Z,75.13
2018-07-16T20:27:41.190Z,75.18
2018-07-16T20:30:10.761Z,75.40
2018-07-16T20:32:40.575Z,75.91
2018-07-16T20:35:10.161Z,75.68
2018-07-16T20:37:38.970Z,76.27
2018-07-16T20:40:07.750Z,76.44
2018-07-16T20:42:36.456Z,77.87
2018-07-16T20:45:05.271Z,78.19
2018-07-16T20:47:34.230Z,77.97
2018-07-16T20:50:03.530Z,77.87
2018-07-16T20:52:32.844Z,77.54
2018-07-16T20:55:02.162Z,78.81
2018-07-16T20:57:31.251Z,78.87
2018-07-16T21:00:00.585Z,79.15
2018-07-16T21:02:29.676Z,79.53
2018-07-16T21:04:58.384Z,79.63
2018-07-16T21:07:27.216Z,79.62
2018-07-16T21:09:57.572Z,80.14
2018-07-16T21:12:26.199Z,80.31
2018-07-16T21:14:55.791Z,80.09
2018-07-16T21:17:25.991Z,79.95
2018-07-16T21:19:55.167Z,80.23
2018-07-16T21:22:24.972Z,80.36
2018-07-16T21:24:54.249Z,81.41
2018-07-16T21:27:22.896Z,81.61
2018-07-16T21:29:52.194Z,81.24
2018-07-16T21:32:21.271Z,81.76
2018-07-16T21:34:50.009Z,82.10
2018-07-16T21:37:18.807Z,82.37
2018-07-16T21:39:47.560Z,82.09
2018-07-16T21:42:16.356Z,82.18
2018-07-16T21:44:45.081Z,82.84
2018-07-16T21:47:13.824Z,82.75
2018-07-16T21:49:42.620Z,82.36
2018-07-16T21:52:11.360Z,82.07
2018-07-16T21:54:40.281Z,82.04
2018-07-16T21:57:09.070Z,82.05
2018-07-16T21:59:37.870Z,82.62
2018-07-16T22:02:07.027Z,82.81
2018-07-16T22:04:36.102Z,83.00
2018-07-16T22:07:04.881Z,83.06
2018-07-16T22:09:33.764Z,83.68
2018-07-16T22:12:02.917Z,83.77
2018-07-16T22:14:32.385Z,83.87
2018-07-16T22:17:01.596Z,84.17
2018-07-16T22:19:30.601Z,84.34
2018-07-16T22:21:59.909Z,84.22
2018-07-16T22:24:28.921Z,84.52
2018-07-16T22:26:57.599Z,84.58
2018-07-16T22:29:26.491Z,84.27
2018-07-16T22:31:55.231Z,84.62
2018-07-16T22:34:24.165Z,85.04
2018-07-16T22:36:52.917Z,85.07
2018-07-16T22:39:21.590Z,85.03
2018-07-16T22:41:50.326Z,84.61
2018-07-16T22:44:19.010Z,85.14
2018-07-16T22:46:48.204Z,85.36
2018-07-16T22:49:17.129Z,85.97
2018-07-16T22:51:45.876Z,86.02
2018-07-16T22:54:14.550Z,86.31
2018-07-16T22:56:43.247Z,86.44
2018-07-16T22:59:12.224Z,86.33
2018-07-16T23:01:42.063Z,86.25
2018-07-16T23:04:10.786Z,86.82
2018-07-16T23:06:39.585Z,86.63
2018-07-16T23:09:08.292Z,86.74
2018-07-16T23:11:37.114Z,86.67
2018-07-16T23:14:05.896Z,87.05
2018-07-16T23:16:34.602Z,87.17
2018-07-16T23:19:03.241Z,87.14
2018-07-16T23:21:32.374Z,87.14
2018-07-16T23:24:01.002Z,87.06
2018-07-16T23:26:29.806Z,87.18
2018-07-16T23:28:58.547Z,87.39
2018-07-16T23:31:27.341Z,87.30
2018-07-16T23:33:55.959Z,87.20
2018-07-16T23:36:24.791Z,87.46
2018-07-16T23:38:53.636Z,88.08
2018-07-16T23:41:22.256Z,87.45
2018-07-16T23:43:50.816Z,88.04
2018-07-16T23:46:19.757Z,87.88
2018-07-16T23:48:48.836Z,88.27
2018-07-16T23:51:17.372Z,88.25
2018-07-16T23:53:46.434Z,88.08
2018-07-16T23:56:15.860Z,88.08
2018-07-16T23:58:44.416Z,87.83
